createdAt,value
2023-01-09T00:00:52.947Z,99899.28
2023-01-09T00:04:14.982Z,99887.25
2023-01-09T00:07:36.457Z,99884.16
2023-01-09T00:10:57.631Z,99886.94
2023-01-09T00:14:20.251Z,99879.38
2023-01-09T00:17:42.924Z,99871.97
2023-01-09T00:21:06.314Z,99871.38
2023-01-09T00:24:28.077Z,99869.41
2023-01-09T00:27:49.723Z,99862.69
2023-01-09T00:31:11.886Z,99861.41
2023-01-09T00:34:37.475Z,99866.38
2023-01-09T00:37:58.878Z,99858.84
2023-01-09T00:41:24.559Z,99860.91
2023-01-09T00:44:48.830Z,99853.47
2023-01-09T00:48:14.669Z,99845.81
2023-01-09T00:51:39.445Z,99855.53
2023-01-09T00:55:01.631Z,99853.16
2023-01-09T00:58:23.347Z,99850.75
2023-01-09T01:01:45.223Z,99839.03
2023-01-09T01:05:25.288Z,99842.91
2023-01-09T01:08:48.207Z,99841.34
2023-01-09T01:12:10.021Z,99840.63
2023-01-09T01:15:32.239Z,99831.16
2023-01-09T01:18:53.640Z,99827.91
2023-01-09T01:22:14.893Z,99825.25
2023-01-09T01:25:38.848Z,99829.84
2023-01-09T01:29:00.867Z,99819.53
2023-01-09T01:32:22.813Z,99826.75
2023-01-09T01:35:44.229Z,99820.03
2023-01-09T01:39:05.939Z,99816.94
2023-01-09T01:42:29.012Z,99821.91
2023-01-09T01:45:50.913Z,99810.97
2023-01-09T01:49:20.230Z,99804.50
2023-01-09T01:52:44.671Z,99805.75
2023-01-09T01:56:11.391Z,99799.28
2023-01-09T01:59:39.024Z,99794.63
2023-01-09T02:03:02.070Z,99787.91
2023-01-09T02:06:23.712Z,99782.00
2023-01-09T02:09:46.211Z,99789.59
2023-01-09T02:13:09.344Z,99781.31
2023-01-09T02:16:47.757Z,99776.53
2023-01-09T02:20:43.476Z,99782.44
2023-01-09T02:24:36.270Z,99775.00
2023-01-09T02:28:27.683Z,99777.28
2023-01-09T02:31:55.419Z,99771.28
2023-01-09T02:35:34.063Z,99766.50
2023-01-09T02:39:09.014Z,99767.81
2023-01-09T02:42:32.411Z,99772.53
2023-01-09T02:45:53.881Z,99769.50
2023-01-09T02:49:18.447Z,99760.66
2023-01-09T02:53:04.177Z,99762.81
2023-01-09T02:57:01.482Z,99768.59
2023-01-09T03:00:35.052Z,99771.81
2023-01-09T03:04:05.450Z,99767.59
2023-01-09T03:07:35.590Z,99765.34
2023-01-09T03:11:02.002Z,99770.00
2023-01-09T03:14:26.977Z,99754.66
2023-01-09T03:17:50.558Z,99746.13
2023-01-09T03:21:13.554Z,99749.00
2023-01-09T03:24:38.792Z,99745.16
2023-01-09T03:28:02.672Z,99750.91
2023-01-09T03:31:24.560Z,99750.53
2023-01-09T03:34:46.418Z,99743.34
2023-01-09T03:38:08.112Z,99749.78
2023-01-09T03:41:30.985Z,99740.44
2023-01-09T03:44:53.069Z,99743.41
2023-01-09T03:48:14.781Z,99736.38
2023-01-09T03:51:36.586Z,99731.19
2023-01-09T03:54:58.134Z,99733.00
2023-01-09T03:58:22.154Z,99726.38
2023-01-09T04:01:43.422Z,99716.06
2023-01-09T04:05:05.414Z,99725.75
2023-01-09T04:08:27.341Z,99719.28
2023-01-09T04:11:48.768Z,99722.16
2023-01-09T04:15:12.414Z,99717.84
2023-01-09T04:18:33.945Z,99717.97
2023-01-09T04:21:55.747Z,99715.09
2023-01-09T04:25:17.090Z,99724.44
2023-01-09T04:28:38.307Z,99717.28
2023-01-09T04:32:00.920Z,99721.44
2023-01-09T04:35:22.903Z,99710.81
2023-01-09T04:38:44.230Z,99708.28
2023-01-09T04:42:05.470Z,99709.13
2023-01-09T04:45:27.376Z,99697.63
2023-01-09T04:48:50.254Z,99700.13
2023-01-09T04:52:11.926Z,99691.16
2023-01-09T04:55:33.880Z,99678.59
2023-01-09T04:58:55.583Z,99674.63
2023-01-09T05:02:17.415Z,99673.34
2023-01-09T05:05:40.266Z,99667.72
2023-01-09T05:09:02.661Z,99655.13
2023-01-09T05:12:24.312Z,99658.94
2023-01-09T05:15:45.690Z,99658.84
2023-01-09T05:19:07.480Z,99656.69
2023-01-09T05:22:30.286Z,99652.84
2023-01-09T05:25:52.000Z,99644.56
2023-01-09T05:29:13.891Z,99651.28
2023-01-09T05:32:35.642Z,99652.09
2023-01-09T05:35:57.380Z,99644.91
2023-01-09T05:39:19.914Z,99655.22
2023-01-09T05:42:43.400Z,99656.88
2023-01-09T05:46:04.926Z,99650.69
2023-01-09T05:49:26.622Z,99644.31
2023-01-09T05:52:48.502Z,99643.25
2023-01-09T05:56:12.013Z,99644.78
2023-01-09T05:59:33.476Z,99641.31
2023-01-09T06:02:55.307Z,99648.25
2023-01-09T06:06:17.171Z,99640.22
2023-01-09T06:09:38.450Z,99637.00
2023-01-09T06:13:01.601Z,99634.13
2023-01-09T06:16:23.414Z,99636.03
2023-01-09T06:19:45.239Z,99627.97
2023-01-09T06:23:06.865Z,99628.84
2023-01-09T06:26:28.723Z,99630.50
2023-01-09T06:29:51.698Z,99633.97
2023-01-09T06:33:13.506Z,99631.22
2023-01-09T06:36:35.503Z,99633.97
2023-01-09T06:39:57.007Z,99622.44
2023-01-09T06:43:18.936Z,99625.69
2023-01-09T06:46:41.907Z,99624.59
2023-01-09T06:50:03.942Z,99625.44
2023-01-09T06:53:25.474Z,99628.81
2023-01-09T06:56:47.552Z,99629.75
2023-01-09T07:00:10.504Z,99629.41
2023-01-09T07:03:33.898Z,99617.03
2023-01-09T07:06:55.744Z,99612.84
2023-01-09T07:10:17.387Z,99609.97
2023-01-09T07:13:39.044Z,99613.31
2023-01-09T07:17:00.489Z,99606.94
2023-01-09T07:20:23.239Z,99604.53
2023-01-09T07:23:45.316Z,99595.56
2023-01-09T07:27:06.977Z,99598.91
2023-01-09T07:30:28.462Z,99602.84
2023-01-09T07:33:50.442Z,99600.31
2023-01-09T07:37:13.747Z,99597.44
2023-01-09T07:40:35.626Z,99594.69
2023-01-09T07:43:58.244Z,99598.16
2023-01-09T07:47:19.960Z,99594.53
2023-01-09T07:50:42.597Z,99595.38
2023-01-09T07:54:06.851Z,99598.75
2023-01-09T07:57:30.632Z,99598.50
2023-01-09T08:00:52.486Z,99587.66
2023-01-09T08:04:14.262Z,99595.78
2023-01-09T08:07:36.243Z,99587.50
2023-01-09T08:10:59.069Z,99600.03
2023-01-09T08:14:21.081Z,99610.00
2023-01-09T08:17:44.291Z,99607.41
2023-01-09T08:21:06.087Z,99605.22
2023-01-09T08:24:27.455Z,99603.63
2023-01-09T08:27:50.591Z,99595.19
2023-01-09T08:31:11.984Z,99596.25
2023-01-09T08:34:33.657Z,99601.00
2023-01-09T08:37:55.466Z,99610.78
2023-01-09T08:41:35.457Z,99605.81
2023-01-09T08:45:15.433Z,99607.06
2023-01-09T08:48:38.143Z,99605.72
2023-01-09T08:51:59.855Z,99613.25
2023-01-09T08:55:22.024Z,99606.75
2023-01-09T08:58:44.968Z,99611.59
2023-01-09T09:02:08.070Z,99611.22
2023-01-09T09:05:30.959Z,99612.50
2023-01-09T09:08:52.750Z,99617.38
2023-01-09T09:12:14.560Z,99611.00
2023-01-09T09:15:38.158Z,99613.94
2023-01-09T09:19:01.658Z,99618.81
2023-01-09T09:22:23.414Z,99626.38
2023-01-09T09:25:45.300Z,99626.09
2023-01-09T09:29:07.119Z,99631.94
2023-01-09T09:32:28.955Z,99628.19
2023-01-09T09:35:52.153Z,99634.88
2023-01-09T09:39:14.007Z,99624.88
2023-01-09T09:43:14.434Z,99629.03
2023-01-09T09:46:44.535Z,99617.19
2023-01-09T09:50:20.998Z,99621.28
2023-01-09T09:53:48.704Z,99628.78
2023-01-09T09:57:18.144Z,99635.63
2023-01-09T10:00:40.567Z,99624.91
2023-01-09T10:04:07.567Z,99623.78
2023-01-09T10:07:34.542Z,99626.16
2023-01-09T10:10:57.505Z,99626.00
2023-01-09T10:14:24.190Z,99630.22
2023-01-09T10:18:01.286Z,99633.56
2023-01-09T10:21:28.283Z,99632.56
2023-01-09T10:25:03.958Z,99638.72
2023-01-09T10:28:47.936Z,99637.59
2023-01-09T10:32:27.340Z,99638.28
2023-01-09T10:36:24.938Z,99631.03
2023-01-09T10:39:52.381Z,99638.72
2023-01-09T10:43:22.620Z,99640.09
2023-01-09T10:46:50.119Z,99647.09
2023-01-09T10:50:20.959Z,99646.84
2023-01-09T10:53:46.659Z,99648.50
2023-01-09T10:57:16.413Z,99649.91
2023-01-09T11:00:40.244Z,99663.84
2023-01-09T11:04:03.941Z,99655.75
2023-01-09T11:07:30.495Z,99651.97
2023-01-09T11:10:54.603Z,99652.69
2023-01-09T11:14:19.020Z,99656.84
2023-01-09T11:17:40.411Z,99669.84
2023-01-09T11:21:27.034Z,99667.75
2023-01-09T11:25:01.382Z,99670.09
2023-01-09T11:28:25.786Z,99664.81
2023-01-09T11:31:54.586Z,99668.03
2023-01-09T11:35:24.024Z,99679.16
2023-01-09T11:38:53.436Z,99669.41
2023-01-09T11:42:41.992Z,99681.41
2023-01-09T11:46:06.401Z,99679.63
2023-01-09T11:49:29.922Z,99683.78
2023-01-09T11:53:13.394Z,99695.78
2023-01-09T11:56:38.138Z,99696.63
2023-01-09T12:00:04.564Z,99693.69
2023-01-09T12:03:58.301Z,99693.41
2023-01-09T12:07:58.209Z,99711.69
2023-01-09T12:11:28.307Z,99694.78
2023-01-09T12:15:03.017Z,99699.81
2023-01-09T12:18:40.761Z,99701.38
2023-01-09T12:22:12.807Z,99697.56
2023-01-09T12:25:46.729Z,99697.59
2023-01-09T12:29:30.837Z,99696.47
2023-01-09T12:33:10.091Z,99711.41
2023-01-09T12:36:39.283Z,99720.91
2023-01-09T12:40:12.616Z,99730.66
2023-01-09T12:43:43.466Z,99734.16
2023-01-09T12:47:25.331Z,99744.91
2023-01-09T12:51:11.840Z,99731.63
2023-01-09T12:54:41.138Z,99735.44
2023-01-09T12:58:09.882Z,99743.50
2023-01-09T13:01:38.915Z,99736.94
2023-01-09T13:05:04.344Z,99738.22
2023-01-09T13:08:33.033Z,99732.63
2023-01-09T13:12:04.102Z,99723.56
2023-01-09T13:15:31.169Z,99726.22
2023-01-09T13:18:59.307Z,99730.25
2023-01-09T13:22:23.563Z,99735.41
2023-01-09T13:25:49.478Z,99749.09
2023-01-09T13:29:17.743Z,99749.50
2023-01-09T13:32:49.607Z,99746.72
2023-01-09T13:36:24.222Z,99757.03
2023-01-09T13:39:56.951Z,99759.69
2023-01-09T13:43:20.101Z,99753.00
2023-01-09T13:46:44.343Z,99756.50
2023-01-09T13:50:26.309Z,99762.63
2023-01-09T13:53:48.300Z,99763.47
2023-01-09T13:57:28.619Z,99774.50
2023-01-09T14:00:54.064Z,99777.16
2023-01-09T14:04:41.743Z,99785.97
2023-01-09T14:08:06.223Z,99799.34
2023-01-09T14:11:29.065Z,99796.69
2023-01-09T14:14:52.731Z,99803.94
2023-01-09T14:18:20.104Z,99819.03
2023-01-09T14:21:52.054Z,99822.25
2023-01-09T14:28:44.225Z,99839.53
2023-01-09T14:32:43.427Z,99850.28
2023-01-09T14:36:21.800Z,99852.66
2023-01-09T14:39:47.310Z,99874.16
2023-01-09T14:43:15.963Z,99873.69
2023-01-09T14:46:39.807Z,99884.28
2023-01-09T14:50:07.450Z,99889.59
2023-01-09T14:53:32.556Z,99896.56
2023-01-09T14:56:54.419Z,99901.06
2023-01-09T15:00:19.596Z,99900.34
2023-01-09T15:03:44.033Z,99898.38
2023-01-09T15:07:07.324Z,99904.38
2023-01-09T15:10:34.569Z,99926.44
2023-01-09T15:14:00.154Z,99935.22
2023-01-09T15:17:23.732Z,99932.56
2023-01-09T15:20:45.212Z,99929.19
2023-01-09T15:24:14.801Z,99929.19
2023-01-09T15:27:48.703Z,99941.75
2023-01-09T15:31:15.452Z,99938.28
2023-01-09T15:34:37.532Z,99945.63
2023-01-09T15:37:59.752Z,99943.38
2023-01-09T15:41:43.672Z,99940.03
2023-01-09T15:45:07.843Z,99938.59
2023-01-09T15:48:32.869Z,99942.50
2023-01-09T15:51:55.632Z,99953.50
2023-01-09T15:55:26.240Z,99956.66
2023-01-09T15:58:48.775Z,99973.94
2023-01-09T16:02:33.219Z,99967.34
2023-01-09T16:06:05.242Z,99976.50
2023-01-09T16:09:29.093Z,99980.66
2023-01-09T16:12:52.779Z,99976.69
2023-01-09T16:16:24.020Z,99992.03
2023-01-09T16:19:49.887Z,99994.06
2023-01-09T16:23:22.369Z,99991.53
2023-01-09T16:26:43.918Z,99993.47
2023-01-09T16:30:07.684Z,99996.28
2023-01-09T16:33:30.738Z,99988.44
2023-01-09T16:36:53.896Z,99990.25
2023-01-09T16:40:25.182Z,100001.94
2023-01-09T16:43:47.903Z,99998.31
2023-01-09T16:47:11.941Z,100006.25
2023-01-09T16:50:33.767Z,100012.28
2023-01-09T16:53:57.267Z,100009.63
2023-01-09T16:57:19.721Z,100018.53
2023-01-09T17:00:41.317Z,100019.38
2023-01-09T17:04:02.712Z,100013.84
2023-01-09T17:07:25.863Z,100018.03
2023-01-09T17:10:49.086Z,100019.69
2023-01-09T17:14:13.021Z,100021.38
2023-01-09T17:17:34.636Z,100015.53
2023-01-09T17:20:57.428Z,100019.25
2023-01-09T17:24:36.905Z,100018.53
2023-01-09T17:28:16.896Z,100023.25
2023-01-09T17:31:38.809Z,100022.53
2023-01-09T17:35:00.308Z,100021.09
2023-01-09T17:38:22.184Z,100021.34
2023-01-09T17:41:44.566Z,100018.84
2023-01-09T17:45:08.535Z,100025.34
2023-01-09T17:48:30.285Z,100026.44
2023-01-09T17:51:51.904Z,100020.56
2023-01-09T17:55:13.632Z,100021.63
2023-01-09T17:58:35.423Z,100027.44
2023-01-09T18:01:58.487Z,100033.22
2023-01-09T18:05:20.065Z,100044.16
2023-01-09T18:08:42.751Z,100049.25
2023-01-09T18:12:04.205Z,100050.69
2023-01-09T18:15:26.107Z,100052.97
2023-01-09T18:18:49.199Z,100052.03
2023-01-09T18:22:10.527Z,100062.34
2023-01-09T18:25:31.966Z,100065.84
2023-01-09T18:28:56.453Z,100075.31
2023-01-09T18:32:18.220Z,100073.13
2023-01-09T18:35:41.675Z,100079.59
2023-01-09T18:39:08.780Z,100074.75
2023-01-09T18:42:30.461Z,100095.06
2023-01-09T18:45:52.280Z,100087.88
2023-01-09T18:49:14.046Z,100099.41
2023-01-09T18:52:36.691Z,100100.13
2023-01-09T18:55:58.507Z,100104.44
2023-01-09T18:59:20.409Z,100114.06
2023-01-09T19:02:42.173Z,100110.22
2023-01-09T19:06:04.823Z,100118.88
2023-01-09T19:09:27.745Z,100126.81
2023-01-09T19:12:48.872Z,100132.94
2023-01-09T19:16:10.991Z,100138.25
2023-01-09T19:19:32.886Z,100125.84
2023-01-09T19:22:56.748Z,100131.78
2023-01-09T19:26:23.737Z,100133.47
2023-01-09T19:29:45.499Z,100127.84
2023-01-09T19:33:07.327Z,100138.41
2023-01-09T19:36:29.572Z,100149.94
2023-01-09T19:39:51.353Z,100150.06
2023-01-09T19:43:25.650Z,100156.41
2023-01-09T19:46:47.451Z,100149.53
2023-01-09T19:50:10.396Z,100158.41
2023-01-09T19:53:32.831Z,100156.13
2023-01-09T19:56:54.331Z,100158.16
2023-01-09T20:00:18.215Z,100162.09
2023-01-09T20:03:41.414Z,100163.28
2023-01-09T20:07:04.945Z,100170.13
2023-01-09T20:10:26.543Z,100181.56
2023-01-09T20:13:48.361Z,100173.63
2023-01-09T20:17:10.915Z,100173.50
2023-01-09T20:20:32.531Z,100179.19
2023-01-09T20:23:55.919Z,100177.16
2023-01-09T20:27:17.921Z,100183.91
2023-01-09T20:30:42.182Z,100188.66
2023-01-09T20:34:05.747Z,100182.28
2023-01-09T20:37:27.524Z,100177.38
2023-01-09T20:40:49.196Z,100190.13
2023-01-09T20:44:13.561Z,100179.19
2023-01-09T20:47:35.005Z,100188.69
2023-01-09T20:51:04.182Z,100204.31
2023-01-09T20:54:26.195Z,100204.22
2023-01-09T20:57:47.581Z,100208.41
2023-01-09T21:01:11.679Z,100212.75
2023-01-09T21:04:33.031Z,100222.38
2023-01-09T21:07:56.043Z,100223.09
2023-01-09T21:11:18.500Z,100230.06
2023-01-09T21:14:39.993Z,100237.06
2023-01-09T21:18:01.664Z,100232.69
2023-01-09T21:21:26.301Z,100237.91
2023-01-09T21:24:51.618Z,100249.34
2023-01-09T21:28:15.269Z,100253.75
2023-01-09T21:31:37.014Z,100257.38
2023-01-09T21:35:03.145Z,100258.34
2023-01-09T21:38:25.957Z,100273.47
2023-01-09T21:42:06.096Z,100273.56
2023-01-09T21:45:45.422Z,100279.09
2023-01-09T21:49:07.852Z,100291.59
2023-01-09T21:52:29.758Z,100293.66
2023-01-09T21:55:51.817Z,100297.34
2023-01-09T21:59:14.971Z,100310.81
2023-01-09T22:02:36.783Z,100320.66
2023-01-09T22:05:58.513Z,100322.06
2023-01-09T22:09:19.931Z,100334.56
2023-01-09T22:13:01.611Z,100336.69
2023-01-09T22:16:26.725Z,100356.34
2023-01-09T22:19:48.367Z,100346.31
2023-01-09T22:23:09.765Z,100359.03
2023-01-09T22:26:31.302Z,100364.41
2023-01-09T22:29:53.011Z,100367.91
2023-01-09T22:33:15.980Z,100364.31
2023-01-09T22:36:38.121Z,100373.72
2023-01-09T22:39:59.667Z,100375.41
2023-01-09T22:43:20.927Z,100375.09
2023-01-09T22:46:42.839Z,100374.88
2023-01-09T22:50:06.935Z,100385.13
2023-01-09T22:53:28.989Z,100388.16
2023-01-09T22:56:51.253Z,100386.34
2023-01-09T23:00:13.820Z,100386.13
2023-01-09T23:03:35.469Z,100394.47
2023-01-09T23:06:58.371Z,100397.75
2023-01-09T23:10:19.676Z,100403.88
2023-01-09T23:13:41.639Z,100406.41
2023-01-09T23:17:03.173Z,100414.22
2023-01-09T23:20:25.050Z,100423.97
2023-01-09T23:23:47.987Z,100431.78
2023-01-09T23:27:09.682Z,100422.88
2023-01-09T23:30:30.930Z,100443.00
2023-01-09T23:33:52.065Z,100441.09
2023-01-09T23:37:13.367Z,100442.66
2023-01-09T23:40:39.965Z,100449.44
2023-01-09T23:44:00.448Z,100458.09
2023-01-09T23:47:22.280Z,100459.56
2023-01-09T23:50:45.719Z,100469.06
2023-01-09T23:54:07.578Z,100473.16
2023-01-09T23:57:30.128Z,100480.03
